sensor_id;sensor_type;location;lat;lon;timestamp;temperature;humidity
57026;DHT22;43961;52.940;6.834;2023-06-24T00:02:17;17.20;99.90
57026;DHT22;43961;52.940;6.834;2023-06-24T00:04:43;17.10;99.90
57026;DHT22;43961;52.940;6.834;2023-06-24T00:07:08;17.10;99.90
57026;DHT22;43961;52.940;6.834;2023-06-24T00:09:34;17.00;99.90
57026;DHT22;43961;52.940;6.834;2023-06-24T00:12:02;17.00;99.90
57026;DHT22;43961;52.940;6.834;2023-06-24T00:14:28;17.00;99.90
57026;DHT22;43961;52.940;6.834;2023-06-24T00:16:54;16.90;99.90
57026;DHT22;43961;52.940;6.834;2023-06-24T00:19:21;16.80;99.90
57026;DHT22;43961;52.940;6.834;2023-06-24T00:21:53;16.70;99.90
57026;DHT22;43961;52.940;6.834;2023-06-24T00:24:19;16.80;99.90
57026;DHT22;43961;52.940;6.834;2023-06-24T00:26:48;16.70;99.90
57026;DHT22;43961;52.940;6.834;2023-06-24T00:29:14;16.60;99.90
57026;DHT22;43961;52.940;6.834;2023-06-24T00:31:41;16.50;99.90
57026;DHT22;43961;52.940;6.834;2023-06-24T00:34:07;16.50;99.90
57026;DHT22;43961;52.940;6.834;2023-06-24T00:36:33;16.50;99.90
57026;DHT22;43961;52.940;6.834;2023-06-24T00:39:00;16.30;99.90
57026;DHT22;43961;52.940;6.834;2023-06-24T00:41:27;16.40;99.90
57026;DHT22;43961;52.940;6.834;2023-06-24T00:43:53;16.30;99.90
57026;DHT22;43961;52.940;6.834;2023-06-24T00:46:20;16.30;99.90
57026;DHT22;43961;52.940;6.834;2023-06-24T00:48:45;16.10;99.90
57026;DHT22;43961;52.940;6.834;2023-06-24T00:51:11;16.20;99.90
57026;DHT22;43961;52.940;6.834;2023-06-24T00:53:37;16.10;99.90
57026;DHT22;43961;52.940;6.834;2023-06-24T00:56:04;16.00;99.90
57026;DHT22;43961;52.940;6.834;2023-06-24T00:58:31;16.00;99.90
57026;DHT22;43961;52.940;6.834;2023-06-24T01:00:58;16.00;99.90
57026;DHT22;43961;52.940;6.834;2023-06-24T01:03:25;16.00;99.90
57026;DHT22;43961;52.940;6.834;2023-06-24T01:05:51;16.00;99.90
57026;DHT22;43961;52.940;6.834;2023-06-24T01:08:18;15.90;99.90
57026;DHT22;43961;52.940;6.834;2023-06-24T01:10:45;15.90;99.90
57026;DHT22;43961;52.940;6.834;2023-06-24T01:13:11;15.80;99.90
57026;DHT22;43961;52.940;6.834;2023-06-24T01:15:37;15.80;99.90
57026;DHT22;43961;52.940;6.834;2023-06-24T01:18:33;15.80;99.90
57026;DHT22;43961;52.940;6.834;2023-06-24T01:21:10;15.70;99.90
57026;DHT22;43961;52.940;6.834;2023-06-24T01:34:55;15.70;99.90
57026;DHT22;43961;52.940;6.834;2023-06-24T01:37:35;15.60;99.90
57026;DHT22;43961;52.940;6.834;2023-06-24T01:40:13;15.50;99.90
57026;DHT22;43961;52.940;6.834;2023-06-24T01:42:42;15.50;99.90
57026;DHT22;43961;52.940;6.834;2023-06-24T01:45:12;15.50;99.90
57026;DHT22;43961;52.940;6.834;2023-06-24T01:47:41;15.50;99.90
57026;DHT22;43961;52.940;6.834;2023-06-24T01:50:10;15.40;99.90
57026;DHT22;43961;52.940;6.834;2023-06-24T01:52:38;15.30;99.90
57026;DHT22;43961;52.940;6.834;2023-06-24T01:55:07;15.30;99.90
57026;DHT22;43961;52.940;6.834;2023-06-24T01:57:34;15.40;99.90
57026;DHT22;43961;52.940;6.834;2023-06-24T02:00:02;15.30;99.90
57026;DHT22;43961;52.940;6.834;2023-06-24T02:02:32;15.20;99.90
57026;DHT22;43961;52.940;6.834;2023-06-24T02:04:58;15.20;99.90
57026;DHT22;43961;52.940;6.834;2023-06-24T02:07:25;15.20;99.90
57026;DHT22;43961;52.940;6.834;2023-06-24T02:09:53;15.10;99.90
57026;DHT22;43961;52.940;6.834;2023-06-24T02:12:20;15.30;99.90
57026;DHT22;43961;52.940;6.834;2023-06-24T02:14:47;15.20;99.90
57026;DHT22;43961;52.940;6.834;2023-06-24T02:17:14;15.10;99.90
57026;DHT22;43961;52.940;6.834;2023-06-24T02:19:40;15.20;99.90
57026;DHT22;43961;52.940;6.834;2023-06-24T02:22:07;15.10;99.90
57026;DHT22;43961;52.940;6.834;2023-06-24T02:24:39;15.10;99.90
57026;DHT22;43961;52.940;6.834;2023-06-24T02:27:07;15.00;99.90
57026;DHT22;43961;52.940;6.834;2023-06-24T02:29:34;15.00;99.90
57026;DHT22;43961;52.940;6.834;2023-06-24T02:32:00;15.00;99.90
57026;DHT22;43961;52.940;6.834;2023-06-24T02:34:26;14.90;99.90
57026;DHT22;43961;52.940;6.834;2023-06-24T02:36:51;14.90;99.90
57026;DHT22;43961;52.940;6.834;2023-06-24T02:39:18;14.90;99.90
57026;DHT22;43961;52.940;6.834;2023-06-24T02:41:45;14.90;99.90
57026;DHT22;43961;52.940;6.834;2023-06-24T02:44:13;14.90;99.90
57026;DHT22;43961;52.940;6.834;2023-06-24T02:46:40;14.90;99.90
57026;DHT22;43961;52.940;6.834;2023-06-24T02:49:06;14.80;99.90
57026;DHT22;43961;52.940;6.834;2023-06-24T02:51:33;14.90;99.90
57026;DHT22;43961;52.940;6.834;2023-06-24T02:54:00;14.80;99.90
57026;DHT22;43961;52.940;6.834;2023-06-24T02:56:27;14.80;99.90
57026;DHT22;43961;52.940;6.834;2023-06-24T02:58:54;14.80;99.90
57026;DHT22;43961;52.940;6.834;2023-06-24T03:01:20;14.60;99.90
57026;DHT22;43961;52.940;6.834;2023-06-24T03:03:53;14.60;99.90
57026;DHT22;43961;52.940;6.834;2023-06-24T03:06:21;14.70;99.90
57026;DHT22;43961;52.940;6.834;2023-06-24T03:08:48;14.60;99.90
57026;DHT22;43961;52.940;6.834;2023-06-24T03:11:15;14.60;99.90
57026;DHT22;43961;52.940;6.834;2023-06-24T03:13:41;14.50;99.90
57026;DHT22;43961;52.940;6.834;2023-06-24T03:16:07;14.50;99.90
57026;DHT22;43961;52.940;6.834;2023-06-24T03:18:41;14.50;99.90
57026;DHT22;43961;52.940;6.834;2023-06-24T03:21:08;14.40;99.90
57026;DHT22;43961;52.940;6.834;2023-06-24T03:23:33;14.40;99.90
57026;DHT22;43961;52.940;6.834;2023-06-24T03:25:59;14.40;99.90
57026;DHT22;43961;52.940;6.834;2023-06-24T03:28:24;14.40;99.90
57026;DHT22;43961;52.940;6.834;2023-06-24T03:30:50;14.50;99.90
57026;DHT22;43961;52.940;6.834;2023-06-24T03:33:16;14.50;99.90
57026;DHT22;43961;52.940;6.834;2023-06-24T03:35:45;14.50;99.90
57026;DHT22;43961;52.940;6.834;2023-06-24T03:38:10;14.40;99.90
57026;DHT22;43961;52.940;6.834;2023-06-24T03:40:37;14.60;99.90
57026;DHT22;43961;52.940;6.834;2023-06-24T03:43:03;14.30;99.90
57026;DHT22;43961;52.940;6.834;2023-06-24T03:45:28;14.50;99.90
57026;DHT22;43961;52.940;6.834;2023-06-24T03:47:54;14.50;99.90
57026;DHT22;43961;52.940;6.834;2023-06-24T03:50:21;14.40;99.90
57026;DHT22;43961;52.940;6.834;2023-06-24T03:52:47;14.30;99.90
57026;DHT22;43961;52.940;6.834;2023-06-24T03:55:13;14.50;99.90
57026;DHT22;43961;52.940;6.834;2023-06-24T03:57:39;14.30;99.90
57026;DHT22;43961;52.940;6.834;2023-06-24T04:00:05;14.20;99.90
57026;DHT22;43961;52.940;6.834;2023-06-24T04:02:45;14.30;99.90
57026;DHT22;43961;52.940;6.834;2023-06-24T04:05:10;14.40;99.90
57026;DHT22;43961;52.940;6.834;2023-06-24T04:07:36;14.30;99.90
57026;DHT22;43961;52.940;6.834;2023-06-24T04:10:03;14.30;99.90
57026;DHT22;43961;52.940;6.834;2023-06-24T04:12:36;14.50;99.90
57026;DHT22;43961;52.940;6.834;2023-06-24T04:15:05;14.40;99.90
57026;DHT22;43961;52.940;6.834;2023-06-24T04:17:31;14.60;99.90
57026;DHT22;43961;52.940;6.834;2023-06-24T04:19:57;14.50;99.90
57026;DHT22;43961;52.940;6.834;2023-06-24T04:22:24;14.60;99.90
57026;DHT22;43961;52.940;6.834;2023-06-24T04:24:51;14.60;99.90
57026;DHT22;43961;52.940;6.834;2023-06-24T04:27:16;14.70;99.90
57026;DHT22;43961;52.940;6.834;2023-06-24T04:29:42;14.90;99.90
57026;DHT22;43961;52.940;6.834;2023-06-24T04:32:08;14.90;99.90
57026;DHT22;43961;52.940;6.834;2023-06-24T04:34:33;15.10;99.90
57026;DHT22;43961;52.940;6.834;2023-06-24T04:36:59;15.10;99.90
57026;DHT22;43961;52.940;6.834;2023-06-24T04:39:25;15.10;99.90
57026;DHT22;43961;52.940;6.834;2023-06-24T04:41:51;15.20;99.90
57026;DHT22;43961;52.940;6.834;2023-06-24T04:44:16;15.10;99.90
57026;DHT22;43961;52.940;6.834;2023-06-24T04:46:42;15.30;99.90
57026;DHT22;43961;52.940;6.834;2023-06-24T04:49:08;15.30;99.90
57026;DHT22;43961;52.940;6.834;2023-06-24T04:51:33;15.20;99.90
57026;DHT22;43961;52.940;6.834;2023-06-24T04:53:59;15.40;99.90
57026;DHT22;43961;52.940;6.834;2023-06-24T04:56:26;15.50;99.90
57026;DHT22;43961;52.940;6.834;2023-06-24T04:58:51;15.40;99.90
57026;DHT22;43961;52.940;6.834;2023-06-24T05:01:17;15.50;99.90
57026;DHT22;43961;52.940;6.834;2023-06-24T05:03:43;15.50;99.90
57026;DHT22;43961;52.940;6.834;2023-06-24T05:06:08;15.60;99.90
57026;DHT22;43961;52.940;6.834;2023-06-24T05:08:34;15.80;99.90
57026;DHT22;43961;52.940;6.834;2023-06-24T05:11:00;15.80;99.90
57026;DHT22;43961;52.940;6.834;2023-06-24T05:13:27;15.80;99.90
57026;DHT22;43961;52.940;6.834;2023-06-24T05:15:53;15.70;99.90
57026;DHT22;43961;52.940;6.834;2023-06-24T05:18:19;16.00;99.90
57026;DHT22;43961;52.940;6.834;2023-06-24T05:20:44;16.20;99.90
57026;DHT22;43961;52.940;6.834;2023-06-24T05:23:12;16.30;99.90
57026;DHT22;43961;52.940;6.834;2023-06-24T05:25:37;16.30;99.90
57026;DHT22;43961;52.940;6.834;2023-06-24T05:28:03;16.20;99.90
57026;DHT22;43961;52.940;6.834;2023-06-24T05:30:29;16.60;99.90
57026;DHT22;43961;52.940;6.834;2023-06-24T05:32:54;16.60;99.90
57026;DHT22;43961;52.940;6.834;2023-06-24T05:35:20;16.70;99.90
57026;DHT22;43961;52.940;6.834;2023-06-24T05:37:46;16.70;99.90
57026;DHT22;43961;52.940;6.834;2023-06-24T05:40:11;16.60;99.90
57026;DHT22;43961;52.940;6.834;2023-06-24T05:42:38;16.60;99.90
57026;DHT22;43961;52.940;6.834;2023-06-24T05:45:05;16.90;99.90
57026;DHT22;43961;52.940;6.834;2023-06-24T05:47:31;16.90;99.90
57026;DHT22;43961;52.940;6.834;2023-06-24T05:49:57;17.00;99.90
57026;DHT22;43961;52.940;6.834;2023-06-24T05:52:23;17.30;99.90
57026;DHT22;43961;52.940;6.834;2023-06-24T05:54:49;17.30;99.90
57026;DHT22;43961;52.940;6.834;2023-06-24T05:57:15;17.70;99.90
57026;DHT22;43961;52.940;6.834;2023-06-24T05:59:40;17.70;99.90
57026;DHT22;43961;52.940;6.834;2023-06-24T06:02:06;17.90;99.90
57026;DHT22;43961;52.940;6.834;2023-06-24T06:04:32;18.10;99.90
57026;DHT22;43961;52.940;6.834;2023-06-24T06:06:58;18.30;99.90
57026;DHT22;43961;52.940;6.834;2023-06-24T06:09:23;18.30;99.90
57026;DHT22;43961;52.940;6.834;2023-06-24T06:11:49;18.50;99.90
57026;DHT22;43961;52.940;6.834;2023-06-24T06:14:14;18.60;99.90
57026;DHT22;43961;52.940;6.834;2023-06-24T06:16:40;18.90;99.90
57026;DHT22;43961;52.940;6.834;2023-06-24T06:19:06;19.10;99.90
57026;DHT22;43961;52.940;6.834;2023-06-24T06:21:32;19.20;99.90
57026;DHT22;43961;52.940;6.834;2023-06-24T06:23:57;19.30;99.90
57026;DHT22;43961;52.940;6.834;2023-06-24T06:26:23;19.40;99.90
57026;DHT22;43961;52.940;6.834;2023-06-24T06:28:49;19.60;99.90
57026;DHT22;43961;52.940;6.834;2023-06-24T06:31:15;19.80;99.90
57026;DHT22;43961;52.940;6.834;2023-06-24T06:33:41;20.10;99.90
57026;DHT22;43961;52.940;6.834;2023-06-24T06:36:07;20.10;99.90
57026;DHT22;43961;52.940;6.834;2023-06-24T06:38:33;20.40;99.90
57026;DHT22;43961;52.940;6.834;2023-06-24T06:40:59;20.50;99.90
57026;DHT22;43961;52.940;6.834;2023-06-24T06:43:25;21.00;99.90
57026;DHT22;43961;52.940;6.834;2023-06-24T06:45:50;21.20;99.90
57026;DHT22;43961;52.940;6.834;2023-06-24T06:48:16;21.50;99.90
57026;DHT22;43961;52.940;6.834;2023-06-24T06:50:42;21.60;99.90
57026;DHT22;43961;52.940;6.834;2023-06-24T06:53:07;21.90;99.90
57026;DHT22;43961;52.940;6.834;2023-06-24T06:55:33;22.20;99.90
57026;DHT22;43961;52.940;6.834;2023-06-24T06:57:59;22.40;99.90
57026;DHT22;43961;52.940;6.834;2023-06-24T07:00:24;22.70;99.90
57026;DHT22;43961;52.940;6.834;2023-06-24T07:02:50;23.00;99.90
57026;DHT22;43961;52.940;6.834;2023-06-24T07:05:16;23.20;99.90
57026;DHT22;43961;52.940;6.834;2023-06-24T07:07:41;23.50;99.90
57026;DHT22;43961;52.940;6.834;2023-06-24T07:10:10;23.60;99.90
57026;DHT22;43961;52.940;6.834;2023-06-24T07:12:35;23.90;99.90
57026;DHT22;43961;52.940;6.834;2023-06-24T07:15:01;24.10;99.90
57026;DHT22;43961;52.940;6.834;2023-06-24T07:17:27;24.30;99.90
57026;DHT22;43961;52.940;6.834;2023-06-24T07:19:52;24.60;99.90
57026;DHT22;43961;52.940;6.834;2023-06-24T07:22:18;24.80;99.90
57026;DHT22;43961;52.940;6.834;2023-06-24T07:24:43;24.90;99.90
57026;DHT22;43961;52.940;6.834;2023-06-24T07:27:09;25.20;99.90
57026;DHT22;43961;52.940;6.834;2023-06-24T07:29:35;25.20;99.90
57026;DHT22;43961;52.940;6.834;2023-06-24T07:32:01;25.40;99.90
57026;DHT22;43961;52.940;6.834;2023-06-24T07:34:28;25.60;99.90
57026;DHT22;43961;52.940;6.834;2023-06-24T07:36:54;25.70;99.90
57026;DHT22;43961;52.940;6.834;2023-06-24T07:39:20;25.80;99.90
57026;DHT22;43961;52.940;6.834;2023-06-24T07:41:46;26.10;99.90
57026;DHT22;43961;52.940;6.834;2023-06-24T07:44:11;26.20;99.90
57026;DHT22;43961;52.940;6.834;2023-06-24T07:46:37;26.20;99.90
57026;DHT22;43961;52.940;6.834;2023-06-24T07:49:03;26.50;99.90
57026;DHT22;43961;52.940;6.834;2023-06-24T07:51:29;26.70;99.90
57026;DHT22;43961;52.940;6.834;2023-06-24T07:53:55;27.00;99.90
57026;DHT22;43961;52.940;6.834;2023-06-24T07:56:21;27.30;99.90
57026;DHT22;43961;52.940;6.834;2023-06-24T07:58:47;27.50;99.90
57026;DHT22;43961;52.940;6.834;2023-06-24T08:01:12;27.80;99.90
57026;DHT22;43961;52.940;6.834;2023-06-24T08:03:38;27.70;99.90
57026;DHT22;43961;52.940;6.834;2023-06-24T08:06:04;27.90;99.90
57026;DHT22;43961;52.940;6.834;2023-06-24T08:08:30;27.90;99.90
57026;DHT22;43961;52.940;6.834;2023-06-24T08:10:55;27.70;99.90
57026;DHT22;43961;52.940;6.834;2023-06-24T08:13:21;27.90;99.90
57026;DHT22;43961;52.940;6.834;2023-06-24T08:15:47;27.90;99.90
57026;DHT22;43961;52.940;6.834;2023-06-24T08:18:13;28.00;99.90
57026;DHT22;43961;52.940;6.834;2023-06-24T08:20:38;28.10;99.90
57026;DHT22;43961;52.940;6.834;2023-06-24T08:23:04;28.20;99.90
57026;DHT22;43961;52.940;6.834;2023-06-24T08:25:30;28.50;99.90
57026;DHT22;43961;52.940;6.834;2023-06-24T08:27:56;28.50;99.90
57026;DHT22;43961;52.940;6.834;2023-06-24T08:30:21;28.70;99.90
57026;DHT22;43961;52.940;6.834;2023-06-24T08:32:47;28.90;99.90
57026;DHT22;43961;52.940;6.834;2023-06-24T08:35:13;29.20;99.90
57026;DHT22;43961;52.940;6.834;2023-06-24T08:37:39;29.40;99.90
57026;DHT22;43961;52.940;6.834;2023-06-24T08:40:05;29.50;99.90
57026;DHT22;43961;52.940;6.834;2023-06-24T08:42:31;29.40;99.90
57026;DHT22;43961;52.940;6.834;2023-06-24T08:44:57;29.30;99.90
57026;DHT22;43961;52.940;6.834;2023-06-24T08:47:24;29.40;99.90
57026;DHT22;43961;52.940;6.834;2023-06-24T08:49:53;29.30;99.90
57026;DHT22;43961;52.940;6.834;2023-06-24T08:52:26;29.40;99.90
57026;DHT22;43961;52.940;6.834;2023-06-24T08:54:55;29.30;99.90
57026;DHT22;43961;52.940;6.834;2023-06-24T08:57:22;29.40;99.90
57026;DHT22;43961;52.940;6.834;2023-06-24T08:59:48;29.40;99.90
57026;DHT22;43961;52.940;6.834;2023-06-24T09:02:14;29.50;99.90
57026;DHT22;43961;52.940;6.834;2023-06-24T09:04:40;29.50;99.90
57026;DHT22;43961;52.940;6.834;2023-06-24T09:07:06;29.40;99.90
57026;DHT22;43961;52.940;6.834;2023-06-24T09:09:32;29.50;99.90
57026;DHT22;43961;52.940;6.834;2023-06-24T09:12:01;29.40;99.90
57026;DHT22;43961;52.940;6.834;2023-06-24T09:14:29;29.50;99.90
57026;DHT22;43961;52.940;6.834;2023-06-24T09:16:57;29.60;99.90
57026;DHT22;43961;52.940;6.834;2023-06-24T09:19:24;29.60;99.90
57026;DHT22;43961;52.940;6.834;2023-06-24T09:22:05;29.70;99.90
57026;DHT22;43961;52.940;6.834;2023-06-24T09:24:36;29.90;99.10
57026;DHT22;43961;52.940;6.834;2023-06-24T09:27:04;29.80;98.20
57026;DHT22;43961;52.940;6.834;2023-06-24T09:29:34;29.70;98.70
57026;DHT22;43961;52.940;6.834;2023-06-24T09:32:03;29.70;99.10
57026;DHT22;43961;52.940;6.834;2023-06-24T09:34:29;29.80;99.00
57026;DHT22;43961;52.940;6.834;2023-06-24T09:36:58;29.80;99.10
57026;DHT22;43961;52.940;6.834;2023-06-24T09:39:26;29.90;98.80
57026;DHT22;43961;52.940;6.834;2023-06-24T09:41:55;30.20;99.00
57026;DHT22;43961;52.940;6.834;2023-06-24T09:44:21;30.60;97.70
57026;DHT22;43961;52.940;6.834;2023-06-24T09:46:47;30.80;97.50
57026;DHT22;43961;52.940;6.834;2023-06-24T09:49:13;31.00;96.70
57026;DHT22;43961;52.940;6.834;2023-06-24T09:51:45;31.00;97.20
57026;DHT22;43961;52.940;6.834;2023-06-24T09:54:12;31.10;96.90
57026;DHT22;43961;52.940;6.834;2023-06-24T09:56:42;31.40;96.70
57026;DHT22;43961;52.940;6.834;2023-06-24T09:59:11;31.60;96.10
57026;DHT22;43961;52.940;6.834;2023-06-24T10:01:42;31.70;95.50
57026;DHT22;43961;52.940;6.834;2023-06-24T10:04:11;31.80;95.70
57026;DHT22;43961;52.940;6.834;2023-06-24T10:06:38;31.80;95.40
57026;DHT22;43961;52.940;6.834;2023-06-24T10:09:05;31.80;95.30
57026;DHT22;43961;52.940;6.834;2023-06-24T10:11:31;32.10;95.60
57026;DHT22;43961;52.940;6.834;2023-06-24T10:13:56;32.00;94.10
57026;DHT22;43961;52.940;6.834;2023-06-24T10:16:22;32.10;94.70
57026;DHT22;43961;52.940;6.834;2023-06-24T10:18:48;32.30;93.80
57026;DHT22;43961;52.940;6.834;2023-06-24T10:21:15;32.70;93.70
57026;DHT22;43961;52.940;6.834;2023-06-24T10:26:40;33.30;93.50
57026;DHT22;43961;52.940;6.834;2023-06-24T10:34:31;33.50;92.10
57026;DHT22;43961;52.940;6.834;2023-06-24T10:39:51;33.50;92.30
57026;DHT22;43961;52.940;6.834;2023-06-24T10:42:33;33.20;91.60
57026;DHT22;43961;52.940;6.834;2023-06-24T10:45:13;33.00;91.70
57026;DHT22;43961;52.940;6.834;2023-06-24T10:47:41;32.80;91.50
57026;DHT22;43961;52.940;6.834;2023-06-24T10:50:09;32.80;91.60
57026;DHT22;43961;52.940;6.834;2023-06-24T10:52:41;32.90;91.90
57026;DHT22;43961;52.940;6.834;2023-06-24T10:55:07;32.90;90.90
57026;DHT22;43961;52.940;6.834;2023-06-24T10:57:33;33.00;90.30
57026;DHT22;43961;52.940;6.834;2023-06-24T11:00:01;33.30;91.30
57026;DHT22;43961;52.940;6.834;2023-06-24T11:02:28;33.10;88.90
57026;DHT22;43961;52.940;6.834;2023-06-24T11:04:56;33.30;90.60
57026;DHT22;43961;52.940;6.834;2023-06-24T11:07:24;33.30;90.20
57026;DHT22;43961;52.940;6.834;2023-06-24T11:09:51;33.70;90.50
57026;DHT22;43961;52.940;6.834;2023-06-24T11:12:18;33.70;90.20
57026;DHT22;43961;52.940;6.834;2023-06-24T11:14:44;33.70;88.60
57026;DHT22;43961;52.940;6.834;2023-06-24T11:17:10;33.70;89.90
57026;DHT22;43961;52.940;6.834;2023-06-24T11:19:35;33.80;86.30
57026;DHT22;43961;52.940;6.834;2023-06-24T11:22:05;33.80;88.50
57026;DHT22;43961;52.940;6.834;2023-06-24T11:24:32;34.00;89.00
57026;DHT22;43961;52.940;6.834;2023-06-24T11:26:58;33.90;88.50
57026;DHT22;43961;52.940;6.834;2023-06-24T11:29:24;33.70;85.50
57026;DHT22;43961;52.940;6.834;2023-06-24T11:31:50;33.50;89.10
57026;DHT22;43961;52.940;6.834;2023-06-24T11:34:18;33.80;88.60
57026;DHT22;43961;52.940;6.834;2023-06-24T11:36:44;33.90;88.30
57026;DHT22;43961;52.940;6.834;2023-06-24T11:39:20;34.10;84.60
57026;DHT22;43961;52.940;6.834;2023-06-24T11:41:46;34.20;87.40
57026;DHT22;43961;52.940;6.834;2023-06-24T11:44:12;34.60;88.80
57026;DHT22;43961;52.940;6.834;2023-06-24T11:46:37;35.00;87.00
57026;DHT22;43961;52.940;6.834;2023-06-24T11:49:04;35.10;84.30
57026;DHT22;43961;52.940;6.834;2023-06-24T11:51:30;35.20;85.60
57026;DHT22;43961;52.940;6.834;2023-06-24T11:53:59;35.20;83.60
57026;DHT22;43961;52.940;6.834;2023-06-24T11:56:36;35.40;81.80
57026;DHT22;43961;52.940;6.834;2023-06-24T11:59:04;35.30;83.60
57026;DHT22;43961;52.940;6.834;2023-06-24T12:01:33;35.40;84.30
57026;DHT22;43961;52.940;6.834;2023-06-24T12:04:12;35.40;84.30
57026;DHT22;43961;52.940;6.834;2023-06-24T12:06:42;35.40;84.90
57026;DHT22;43961;52.940;6.834;2023-06-24T12:09:09;35.30;83.40
57026;DHT22;43961;52.940;6.834;2023-06-24T12:11:35;35.10;83.30
57026;DHT22;43961;52.940;6.834;2023-06-24T12:14:01;35.00;83.60
57026;DHT22;43961;52.940;6.834;2023-06-24T12:16:27;35.20;84.80
57026;DHT22;43961;52.940;6.834;2023-06-24T12:18:53;35.20;85.00
57026;DHT22;43961;52.940;6.834;2023-06-24T12:21:19;35.30;83.20
57026;DHT22;43961;52.940;6.834;2023-06-24T12:23:45;35.70;85.00
57026;DHT22;43961;52.940;6.834;2023-06-24T12:26:11;35.30;82.50
57026;DHT22;43961;52.940;6.834;2023-06-24T12:28:37;35.40;84.50
57026;DHT22;43961;52.940;6.834;2023-06-24T12:31:02;35.60;84.70
57026;DHT22;43961;52.940;6.834;2023-06-24T12:33:29;35.70;83.70
57026;DHT22;43961;52.940;6.834;2023-06-24T12:35:55;35.60;83.30
57026;DHT22;43961;52.940;6.834;2023-06-24T12:38:20;35.70;83.40
57026;DHT22;43961;52.940;6.834;2023-06-24T12:40:46;35.60;82.10
57026;DHT22;43961;52.940;6.834;2023-06-24T12:43:13;35.60;83.40
57026;DHT22;43961;52.940;6.834;2023-06-24T12:45:43;35.80;82.80
57026;DHT22;43961;52.940;6.834;2023-06-24T12:48:09;35.80;82.90
57026;DHT22;43961;52.940;6.834;2023-06-24T12:50:35;35.60;83.00
57026;DHT22;43961;52.940;6.834;2023-06-24T12:53:01;35.70;82.70
57026;DHT22;43961;52.940;6.834;2023-06-24T12:55:28;35.60;82.80
57026;DHT22;43961;52.940;6.834;2023-06-24T12:57:54;35.50;82.70
57026;DHT22;43961;52.940;6.834;2023-06-24T13:00:21;35.70;83.30
57026;DHT22;43961;52.940;6.834;2023-06-24T13:02:49;35.50;82.60
57026;DHT22;43961;52.940;6.834;2023-06-24T13:05:15;35.60;82.80
57026;DHT22;43961;52.940;6.834;2023-06-24T13:07:41;35.40;83.30
57026;DHT22;43961;52.940;6.834;2023-06-24T13:10:08;35.60;82.50
57026;DHT22;43961;52.940;6.834;2023-06-24T13:12:35;35.30;82.80
57026;DHT22;43961;52.940;6.834;2023-06-24T13:15:01;35.10;82.30
57026;DHT22;43961;52.940;6.834;2023-06-24T13:17:29;34.70;82.70
57026;DHT22;43961;52.940;6.834;2023-06-24T13:19:55;34.60;83.20
57026;DHT22;43961;52.940;6.834;2023-06-24T13:22:22;34.40;82.60
57026;DHT22;43961;52.940;6.834;2023-06-24T13:24:47;34.20;82.90
57026;DHT22;43961;52.940;6.834;2023-06-24T13:27:13;34.40;84.30
57026;DHT22;43961;52.940;6.834;2023-06-24T13:29:39;34.50;85.00
57026;DHT22;43961;52.940;6.834;2023-06-24T13:32:05;34.60;84.10
57026;DHT22;43961;52.940;6.834;2023-06-24T13:34:30;34.40;83.80
57026;DHT22;43961;52.940;6.834;2023-06-24T13:36:56;34.40;83.90
57026;DHT22;43961;52.940;6.834;2023-06-24T13:39:22;34.50;84.30
57026;DHT22;43961;52.940;6.834;2023-06-24T13:41:49;34.50;85.00
57026;DHT22;43961;52.940;6.834;2023-06-24T13:44:15;34.40;84.10
57026;DHT22;43961;52.940;6.834;2023-06-24T13:46:41;34.50;84.40
57026;DHT22;43961;52.940;6.834;2023-06-24T13:49:07;34.40;84.60
57026;DHT22;43961;52.940;6.834;2023-06-24T13:51:34;34.30;84.20
57026;DHT22;43961;52.940;6.834;2023-06-24T13:54:00;34.40;84.40
57026;DHT22;43961;52.940;6.834;2023-06-24T13:56:27;34.50;85.00
57026;DHT22;43961;52.940;6.834;2023-06-24T13:58:54;34.50;84.00
57026;DHT22;43961;52.940;6.834;2023-06-24T14:01:20;34.50;85.00
57026;DHT22;43961;52.940;6.834;2023-06-24T14:03:47;34.40;84.00
57026;DHT22;43961;52.940;6.834;2023-06-24T14:06:18;34.40;84.50
57026;DHT22;43961;52.940;6.834;2023-06-24T14:08:45;34.40;84.80
57026;DHT22;43961;52.940;6.834;2023-06-24T14:11:11;34.10;84.50
57026;DHT22;43961;52.940;6.834;2023-06-24T14:13:40;33.90;84.60
57026;DHT22;43961;52.940;6.834;2023-06-24T14:16:06;33.80;85.00
57026;DHT22;43961;52.940;6.834;2023-06-24T14:18:32;33.60;84.90
57026;DHT22;43961;52.940;6.834;2023-06-24T14:20:59;33.50;83.90
57026;DHT22;43961;52.940;6.834;2023-06-24T14:23:25;33.20;84.70
57026;DHT22;43961;52.940;6.834;2023-06-24T14:25:52;33.00;85.60
57026;DHT22;43961;52.940;6.834;2023-06-24T14:28:17;32.80;85.00
57026;DHT22;43961;52.940;6.834;2023-06-24T14:30:43;32.90;86.10
57026;DHT22;43961;52.940;6.834;2023-06-24T14:33:09;32.60;85.70
57026;DHT22;43961;52.940;6.834;2023-06-24T14:35:35;32.50;86.30
57026;DHT22;43961;52.940;6.834;2023-06-24T14:38:00;32.40;86.10
57026;DHT22;43961;52.940;6.834;2023-06-24T14:40:27;32.20;87.00
57026;DHT22;43961;52.940;6.834;2023-06-24T14:42:53;32.10;86.70
57026;DHT22;43961;52.940;6.834;2023-06-24T14:45:18;32.10;86.90
57026;DHT22;43961;52.940;6.834;2023-06-24T14:47:44;32.10;87.30
57026;DHT22;43961;52.940;6.834;2023-06-24T14:50:10;32.00;86.80
57026;DHT22;43961;52.940;6.834;2023-06-24T14:52:36;32.00;87.00
57026;DHT22;43961;52.940;6.834;2023-06-24T14:55:02;32.00;87.50
57026;DHT22;43961;52.940;6.834;2023-06-24T14:57:27;31.90;87.70
57026;DHT22;43961;52.940;6.834;2023-06-24T14:59:53;31.80;87.70
57026;DHT22;43961;52.940;6.834;2023-06-24T15:02:19;31.80;87.50
57026;DHT22;43961;52.940;6.834;2023-06-24T15:04:44;31.80;87.70
57026;DHT22;43961;52.940;6.834;2023-06-24T15:07:10;31.90;87.60
57026;DHT22;43961;52.940;6.834;2023-06-24T15:09:36;32.00;87.60
57026;DHT22;43961;52.940;6.834;2023-06-24T15:12:02;32.10;87.90
57026;DHT22;43961;52.940;6.834;2023-06-24T15:14:28;31.90;87.80
57026;DHT22;43961;52.940;6.834;2023-06-24T15:16:53;31.90;87.80
57026;DHT22;43961;52.940;6.834;2023-06-24T15:19:20;31.90;88.10
57026;DHT22;43961;52.940;6.834;2023-06-24T15:21:45;32.00;88.30
57026;DHT22;43961;52.940;6.834;2023-06-24T15:24:11;31.90;88.10
57026;DHT22;43961;52.940;6.834;2023-06-24T15:26:37;31.90;88.10
57026;DHT22;43961;52.940;6.834;2023-06-24T15:29:02;31.80;87.70
57026;DHT22;43961;52.940;6.834;2023-06-24T15:31:28;31.70;88.20
57026;DHT22;43961;52.940;6.834;2023-06-24T15:33:54;31.80;87.80
57026;DHT22;43961;52.940;6.834;2023-06-24T15:36:20;31.60;88.60
57026;DHT22;43961;52.940;6.834;2023-06-24T15:38:47;31.60;88.80
57026;DHT22;43961;52.940;6.834;2023-06-24T15:41:14;31.50;89.00
57026;DHT22;43961;52.940;6.834;2023-06-24T15:43:40;31.40;89.90
57026;DHT22;43961;52.940;6.834;2023-06-24T15:46:06;31.20;91.70
57026;DHT22;43961;52.940;6.834;2023-06-24T15:48:32;31.00;93.40
57026;DHT22;43961;52.940;6.834;2023-06-24T15:50:57;30.60;93.30